Time;durP1;ratioP1;P1;durP2;ratioP2;P2;SDS_P1;SDS_P2;PMS_P1;PMS_P2;Temp;Humidity;BMP_temperature;BMP_pressure;BME280_temperature;BME280_humidity;BME280_pressure;Samples;Min_cycle;Max_cycle;Signal;HPM_P1;HPM_P2
2022/08/23 00:01:10;;;;;;;69.20;65.80;;;13.40;96.00;;;;;;4197472;28;20625;-71
2022/08/23 00:03:11;;;;;;;157.13;148.07;;;13.30;96.30;;;;;;4195162;28;20655;-71
2022/08/23 00:05:11;;;;;;;89.43;85.23;;;13.30;96.30;;;;;;4195278;28;20207;-71
2022/08/23 00:07:14;;;;;;;73.07;69.43;;;13.30;96.30;;;;;;4197673;28;20175;-72
2022/08/23 00:09:16;;;;;;;85.10;81.10;;;13.30;96.50;;;;;;4197374;28;20183;-71
2022/08/23 00:11:30;;;;;;;78.23;74.40;;;13.30;96.40;;;;;;4195851;28;20195;-71
2022/08/23 00:13:32;;;;;;;64.47;60.80;;;13.20;97.10;;;;;;4195321;28;20195;-72
2022/08/23 00:15:32;;;;;;;75.33;71.73;;;13.10;97.70;;;;;;4197086;28;20317;-71
2022/08/23 00:17:33;;;;;;;75.73;71.97;;;13.10;97.80;;;;;;4197179;28;20188;-72
2022/08/23 00:19:35;;;;;;;68.07;64.87;;;13.10;97.80;;;;;;4197247;28;20616;-71
2022/08/23 00:21:37;;;;;;;75.63;70.77;;;13.10;97.70;;;;;;4196894;28;20769;-71
2022/08/23 00:23:38;;;;;;;115.80;109.40;;;13.10;97.60;;;;;;4194999;28;20188;-71
2022/08/23 00:25:38;;;;;;;64.47;61.33;;;13.10;97.30;;;;;;4196716;28;20648;-71
2022/08/23 00:27:39;;;;;;;120.57;113.00;;;13.10;97.30;;;;;;4196624;28;20190;-71
2022/08/23 00:29:52;;;;;;;65.30;62.03;;;13.10;97.40;;;;;;4196767;28;20578;-71
2022/08/23 00:31:53;;;;;;;62.57;59.50;;;13.10;97.20;;;;;;4196786;28;20728;-71
2022/08/23 00:33:53;;;;;;;168.03;158.53;;;13.00;97.40;;;;;;4195901;28;20203;-71
2022/08/23 00:35:54;;;;;;;72.53;69.10;;;13.00;97.30;;;;;;4196559;28;20184;-71
2022/08/23 00:37:56;;;;;;;79.53;75.50;;;13.00;97.50;;;;;;4178696;28;20223;-71
2022/08/23 00:39:57;;;;;;;102.63;97.27;;;13.00;97.60;;;;;;4178728;28;20184;-71
2022/08/23 00:47:38;;;;;;;64.37;61.27;;;12.90;97.50;;;;;;4196514;28;20735;-71
2022/08/23 00:49:15;;;;;;;71.87;68.10;;;12.80;98.30;;;;;;4196274;28;20182;-71
2022/08/23 00:51:25;;;;;;;97.53;90.80;;;12.80;98.10;;;;;;4178523;28;20199;-71
2022/08/23 00:53:32;;;;;;;96.30;90.60;;;12.80;98.00;;;;;;4195736;28;20167;-71
2022/08/23 00:55:34;;;;;;;144.33;136.10;;;12.80;97.90;;;;;;4196462;28;20159;-71
2022/08/23 00:57:36;;;;;;;88.87;83.80;;;12.80;97.70;;;;;;4178951;28;20184;-71
2022/08/23 00:59:36;;;;;;;83.40;78.43;;;12.80;97.90;;;;;;4196420;28;20176;-71
2022/08/23 01:01:37;;;;;;;50.33;47.90;;;12.90;98.00;;;;;;4196546;28;20264;-71
2022/08/23 01:03:41;;;;;;;109.40;47.43;;;12.90;98.00;;;;;;4178116;28;20187;-71
2022/08/23 01:05:45;;;;;;;147.07;98.27;;;13.00;97.90;;;;;;4196324;28;20619;-71
2022/08/23 01:07:54;;;;;;;66.10;62.23;;;13.00;97.60;;;;;;4196268;28;20180;-71
2022/08/23 01:10:00;;;;;;;89.20;63.33;;;13.00;97.50;;;;;;4196188;28;20195;-71
2022/08/23 01:12:14;;;;;;;62.63;59.63;;;13.00;97.50;;;;;;4178334;28;20184;-71
2022/08/23 01:14:23;;;;;;;50.40;47.90;;;13.00;97.40;;;;;;4195345;28;20195;-71
2022/08/23 01:16:35;;;;;;;70.40;65.83;;;13.00;97.50;;;;;;4178154;28;20644;-71
2022/08/23 01:18:37;;;;;;;136.57;124.40;;;13.00;97.50;;;;;;4196053;28;20274;-70
2022/08/23 01:20:52;;;;;;;53.93;51.00;;;13.10;97.50;;;;;;4195884;28;20261;-72
2022/08/23 01:22:57;;;;;;;61.03;57.77;;;13.20;96.90;;;;;;4194950;28;20195;-71
2022/08/23 01:24:59;;;;;;;115.90;108.30;;;13.20;96.50;;;;;;4196254;28;20203;-71
2022/08/23 01:27:00;;;;;;;93.50;87.80;;;13.20;96.70;;;;;;4195775;28;20187;-71
2022/08/23 01:29:04;;;;;;;100.43;95.20;;;13.20;96.70;;;;;;4195808;28;20191;-72
2022/08/23 01:31:06;;;;;;;75.63;71.07;;;13.20;96.60;;;;;;4195810;28;20269;-71
2022/08/23 01:33:06;;;;;;;61.00;57.90;;;13.20;96.60;;;;;;4195103;28;20210;-71
2022/08/23 01:35:08;;;;;;;79.13;75.20;;;13.20;96.90;;;;;;4177789;28;20200;-71
2022/08/23 01:37:09;;;;;;;72.80;69.17;;;13.10;96.90;;;;;;4177852;28;20180;-72
2022/08/23 01:39:10;;;;;;;100.30;94.23;;;13.10;97.30;;;;;;4177776;28;20184;-71
2022/08/23 01:41:10;;;;;;;52.27;49.50;;;13.00;97.30;;;;;;4195766;28;20739;-71
2022/08/23 01:43:13;;;;;;;144.50;133.23;;;13.00;97.30;;;;;;4194997;28;20188;-71
2022/08/23 01:45:13;;;;;;;150.77;142.17;;;12.90;97.40;;;;;;4195005;28;20212;-71
2022/08/23 01:47:14;;;;;;;83.43;64.93;;;12.90;97.20;;;;;;4195510;28;20321;-71
2022/08/23 01:49:15;;;;;;;73.73;68.97;;;12.80;97.60;;;;;;4177586;28;20242;-71
2022/08/23 01:51:18;;;;;;;100.33;94.03;;;12.80;97.90;;;;;;4195410;28;20743;-71
2022/08/23 01:53:18;;;;;;;83.17;77.87;;;12.80;97.90;;;;;;4177138;28;20227;-71
2022/08/23 01:55:20;;;;;;;207.23;110.50;;;12.80;98.10;;;;;;4195270;28;20204;-71
2022/08/23 01:57:21;;;;;;;111.73;104.30;;;12.80;97.80;;;;;;4177647;28;20195;-71
2022/08/23 01:59:23;;;;;;;90.57;83.90;;;12.80;97.70;;;;;;4177591;28;20220;-71
2022/08/23 02:01:23;;;;;;;56.93;54.10;;;12.80;97.60;;;;;;4195347;28;20180;-71
2022/08/23 02:03:24;;;;;;;96.33;90.53;;;12.80;98.20;;;;;;4194810;28;20652;-71
2022/08/23 02:05:25;;;;;;;50.30;47.63;;;12.80;97.50;;;;;;4195493;28;20237;-70
2022/08/23 02:07:27;;;;;;;57.30;54.33;;;12.70;97.50;;;;;;4195489;28;20176;-70
2022/08/23 02:09:27;;;;;;;43.60;41.23;;;12.70;97.90;;;;;;4195465;28;20176;-71
2022/08/23 02:11:38;;;;;;;71.80;68.37;;;12.60;98.50;;;;;;4195340;28;20183;-70
2022/08/23 02:13:39;;;;;;;121.40;113.07;;;12.50;98.60;;;;;;4194847;28;20183;-70
2022/08/23 02:15:45;;;;;;;60.80;57.50;;;12.50;98.70;;;;;;4195519;28;20206;-71
2022/08/23 02:17:46;;;;;;;117.33;109.20;;;12.50;98.90;;;;;;4195547;28;20639;-70
2022/08/23 02:19:46;;;;;;;49.53;47.10;;;12.50;98.80;;;;;;4195384;28;20183;-70
2022/08/23 02:21:47;;;;;;;48.17;45.73;;;12.50;98.80;;;;;;4177250;28;20294;-70
2022/08/23 02:23:50;;;;;;;67.80;64.17;;;12.40;98.80;;;;;;4194694;28;20200;-71
2022/08/23 02:25:51;;;;;;;57.40;54.23;;;12.40;99.10;;;;;;4195355;28;20201;-71
2022/08/23 02:27:51;;;;;;;169.73;158.93;;;12.30;99.20;;;;;;4195252;28;20176;-70
2022/08/23 02:29:52;;;;;;;87.03;82.23;;;12.30;99.60;;;;;;4193270;28;20206;-70
2022/08/23 02:31:52;;;;;;;50.07;47.03;;;12.30;99.60;;;;;;4195266;28;20301;-71
2022/08/23 02:33:53;;;;;;;106.07;99.60;;;12.30;99.70;;;;;;4194712;28;20281;-70
2022/08/23 02:35:54;;;;;;;46.17;43.77;;;12.20;99.80;;;;;;4198515;28;20222;-70
2022/08/23 02:37:54;;;;;;;41.63;39.53;;;12.20;99.80;;;;;;4198372;28;20171;-71
2022/08/23 02:39:55;;;;;;;78.83;73.60;;;12.20;99.90;;;;;;4180492;28;20232;-70
2022/08/23 02:41:56;;;;;;;44.63;42.30;;;12.20;99.90;;;;;;4192640;28;20184;-70
2022/08/23 02:43:57;;;;;;;50.73;48.23;;;12.10;99.90;;;;;;4197364;28;20294;-70
2022/08/23 02:45:57;;;;;;;52.23;49.60;;;12.10;99.90;;;;;;4198604;28;20860;-71
2022/08/23 02:47:58;;;;;;;45.00;42.63;;;12.10;99.90;;;;;;4198363;28;20184;-70
2022/08/23 02:49:59;;;;;;;41.60;39.40;;;12.10;99.90;;;;;;4197997;28;20214;-71
2022/08/23 02:52:00;;;;;;;58.10;54.97;;;12.10;99.90;;;;;;4198356;28;20204;-71
2022/08/23 02:54:00;;;;;;;54.17;50.80;;;12.10;99.90;;;;;;4179802;28;20212;-70
2022/08/23 02:56:01;;;;;;;62.30;58.57;;;12.10;99.90;;;;;;4198189;28;20222;-70
2022/08/23 02:58:04;;;;;;;49.80;47.13;;;12.10;99.90;;;;;;4198217;28;20183;-70
2022/08/23 03:00:07;;;;;;;93.60;87.13;;;12.10;99.90;;;;;;4196793;28;20325;-70
2022/08/23 03:02:08;;;;;;;44.70;42.30;;;12.00;99.90;;;;;;4197866;28;20268;-70
2022/08/23 03:04:09;;;;;;;115.93;109.40;;;12.00;99.90;;;;;;4197595;28;20211;-71
2022/08/23 03:06:10;;;;;;;49.33;46.67;;;12.00;99.90;;;;;;4198095;28;20198;-70
2022/08/23 03:08:11;;;;;;;29.20;27.53;;;11.90;99.90;;;;;;4198071;28;20578;-70
2022/08/23 03:10:12;;;;;;;53.63;50.57;;;11.90;99.90;;;;;;4197790;28;20207;-70
2022/08/23 03:12:12;;;;;;;43.83;41.40;;;11.90;99.90;;;;;;4198053;28;20238;-70
2022/08/23 03:14:13;;;;;;;36.43;34.57;;;11.90;99.90;;;;;;4197366;28;20195;-71
2022/08/23 03:16:15;;;;;;;42.90;40.67;;;11.80;99.90;;;;;;4197912;28;20215;-69
2022/08/23 03:18:16;;;;;;;55.97;52.77;;;11.80;99.90;;;;;;4197995;28;20180;-70
2022/08/23 03:20:17;;;;;;;35.70;33.87;;;11.80;99.90;;;;;;4197955;28;20183;-70
2022/08/23 03:22:18;;;;;;;54.37;50.97;;;11.80;99.90;;;;;;4197779;28;20262;-70
2022/08/23 03:24:18;;;;;;;52.47;47.67;;;11.80;99.90;;;;;;4179584;28;20208;-71
2022/08/23 03:26:20;;;;;;;25.17;23.70;;;11.80;99.90;;;;;;4197589;28;20214;-70
2022/08/23 03:28:20;;;;;;;60.73;57.33;;;11.90;99.90;;;;;;4197809;28;20561;-70
2022/08/23 03:30:21;;;;;;;37.30;35.30;;;11.90;99.90;;;;;;4197660;28;20207;-70
2022/08/23 03:32:21;;;;;;;48.93;46.33;;;11.90;99.90;;;;;;4197455;28;20269;-70
2022/08/23 03:34:22;;;;;;;52.60;49.90;;;11.80;99.90;;;;;;4196895;28;20199;-70
2022/08/23 03:36:22;;;;;;;35.70;33.60;;;11.80;99.90;;;;;;4197512;28;20219;-70
2022/08/23 03:38:23;;;;;;;44.10;41.63;;;11.80;99.90;;;;;;4197453;28;20187;-70
2022/08/23 03:40:24;;;;;;;43.60;41.20;;;11.80;99.90;;;;;;4197520;28;20175;-70
2022/08/23 03:42:25;;;;;;;38.23;36.13;;;11.70;99.90;;;;;;4197518;28;20274;-70
2022/08/23 03:44:25;;;;;;;35.83;33.73;;;11.80;99.90;;;;;;4196832;28;20218;-70
2022/08/23 03:46:26;;;;;;;73.53;68.83;;;11.70;99.90;;;;;;4179670;28;20276;-70
2022/08/23 03:48:27;;;;;;;47.83;45.20;;;11.60;99.90;;;;;;4197211;28;20194;-70
2022/08/23 03:50:27;;;;;;;50.30;47.40;;;11.60;99.90;;;;;;4197322;28;20605;-70
2022/08/23 03:52:28;;;;;;;44.80;42.37;;;11.60;99.90;;;;;;4197211;28;20178;-69
2022/08/23 03:54:28;;;;;;;59.30;55.77;;;11.60;99.90;;;;;;4196402;28;20245;-69
2022/08/23 03:56:32;;;;;;;43.23;40.97;;;11.60;99.90;;;;;;4197334;28;20254;-70
2022/08/23 03:58:33;;;;;;;25.97;24.40;;;11.60;99.90;;;;;;4197274;28;20567;-69
2022/08/23 04:00:33;;;;;;;36.50;34.50;;;11.50;99.90;;;;;;4179421;28;20188;-69
2022/08/23 04:02:34;;;;;;;34.80;32.77;;;11.50;99.90;;;;;;4197009;28;20561;-68
2022/08/23 04:04:35;;;;;;;38.43;36.30;;;11.50;99.90;;;;;;4196480;28;20726;-68
2022/08/23 04:06:36;;;;;;;42.10;39.63;;;11.60;99.90;;;;;;4197153;28;20187;-69
2022/08/23 04:08:37;;;;;;;40.77;38.63;;;11.50;99.90;;;;;;4197147;28;20199;-69
2022/08/23 04:10:37;;;;;;;40.10;37.77;;;11.50;99.90;;;;;;4179117;28;20303;-69
2022/08/23 04:12:38;;;;;;;45.20;42.70;;;11.50;99.90;;;;;;4197057;28;20186;-69
2022/08/23 04:14:39;;;;;;;32.37;30.57;;;11.40;99.90;;;;;;4196487;28;20229;-69
2022/08/23 04:16:40;;;;;;;41.33;39.20;;;11.40;99.90;;;;;;4197019;28;20179;-69
2022/08/23 04:18:41;;;;;;;41.80;39.17;;;11.50;99.90;;;;;;4196915;28;20266;-68
2022/08/23 04:20:41;;;;;;;38.27;36.17;;;11.50;99.90;;;;;;4197105;28;20194;-68
2022/08/23 04:22:42;;;;;;;46.90;44.10;;;11.40;99.90;;;;;;4196877;28;20261;-69
2022/08/23 04:24:44;;;;;;;48.23;45.53;;;11.40;99.90;;;;;;4178684;28;20582;-70
2022/08/23 04:26:45;;;;;;;54.80;51.73;;;11.40;99.90;;;;;;4179068;28;20258;-70
2022/08/23 04:28:45;;;;;;;38.83;36.77;;;11.40;99.90;;;;;;4196436;28;20192;-70
2022/08/23 04:30:46;;;;;;;43.17;40.97;;;11.40;99.90;;;;;;4196660;28;20313;-70
2022/08/23 04:32:46;;;;;;;29.00;27.23;;;11.30;99.90;;;;;;4196263;28;20228;-69
2022/08/23 04:34:48;;;;;;;51.07;48.07;;;11.30;99.90;;;;;;4178991;28;20210;-69
2022/08/23 04:36:48;;;;;;;40.83;38.47;;;11.30;99.90;;;;;;4196838;28;20187;-70
2022/08/23 04:38:50;;;;;;;42.57;40.03;;;11.30;99.90;;;;;;4178845;28;20208;-70
2022/08/23 04:43:11;;;;;;;38.37;36.47;;;11.30;99.90;;;;;;4196009;28;20179;-70
2022/08/23 04:45:13;;;;;;;50.80;48.00;;;11.40;99.90;;;;;;4196451;28;20214;-70
2022/08/23 04:47:13;;;;;;;36.63;34.53;;;11.40;99.90;;;;;;4196392;28;20199;-70
2022/08/23 04:49:14;;;;;;;42.00;39.73;;;11.50;99.90;;;;;;4196457;28;20194;-69
2022/08/23 04:51:15;;;;;;;38.37;35.97;;;11.50;99.90;;;;;;4178560;28;20274;-70
2022/08/23 04:53:16;;;;;;;42.30;40.10;;;11.40;99.90;;;;;;4177904;28;20192;-70
2022/08/23 04:55:17;;;;;;;49.63;46.60;;;11.40;99.90;;;;;;4171051;28;20209;-69
2022/08/23 04:57:17;;;;;;;39.73;37.67;;;11.40;99.90;;;;;;4181585;28;20231;-70
2022/08/23 04:59:18;;;;;;;30.63;29.03;;;11.50;99.90;;;;;;4195073;28;20192;-69
2022/08/23 05:01:19;;;;;;;62.93;57.37;;;11.50;99.90;;;;;;4196436;28;20188;-70
2022/08/23 05:03:20;;;;;;;36.77;34.77;;;11.50;99.90;;;;;;4195650;28;20198;-70
2022/08/23 05:05:20;;;;;;;44.10;41.63;;;11.50;99.90;;;;;;4196533;28;20282;-70
2022/08/23 05:07:21;;;;;;;97.97;72.63;;;11.50;99.90;;;;;;4196142;28;20245;-69
2022/08/23 05:09:23;;;;;;;94.10;69.67;;;11.50;99.90;;;;;;4196197;28;20187;-70
2022/08/23 05:11:24;;;;;;;41.90;39.67;;;11.50;99.90;;;;;;4178285;28;20254;-69
2022/08/23 05:13:25;;;;;;;37.73;35.77;;;11.60;99.90;;;;;;4177449;28;21030;-70
2022/08/23 05:15:25;;;;;;;30.80;29.20;;;11.60;99.90;;;;;;4196160;28;20691;-70
2022/08/23 05:17:26;;;;;;;38.43;36.17;;;11.60;99.90;;;;;;4196050;28;20184;-69
2022/08/23 05:19:27;;;;;;;47.53;45.17;;;11.70;99.90;;;;;;4195901;28;20244;-69
2022/08/23 05:21:27;;;;;;;52.87;49.90;;;11.70;99.90;;;;;;4195879;28;20228;-69
2022/08/23 05:23:28;;;;;;;42.70;40.30;;;11.70;99.90;;;;;;4195226;28;20180;-69
2022/08/23 05:25:51;;;;;;;19.77;18.57;;;11.80;99.80;;;;;;4178181;28;20246;-69
2022/08/23 05:27:50;;;;;;;32.10;30.43;;;11.90;99.30;;;;;;4195341;28;20188;-69
2022/08/23 05:29:53;;;;;;;31.03;29.00;;;11.90;99.00;;;;;;4195692;28;20249;-69
2022/08/23 05:31:53;;;;;;;36.00;34.00;;;12.00;98.90;;;;;;4195941;28;20183;-69
2022/08/23 05:33:54;;;;;;;36.67;34.70;;;12.00;99.00;;;;;;4195117;28;20851;-69
2022/08/23 05:35:56;;;;;;;42.47;40.37;;;12.00;99.10;;;;;;4195669;28;20175;-69
2022/08/23 05:37:59;;;;;;;40.50;38.37;;;12.00;99.20;;;;;;4195794;28;20202;-69
2022/08/23 05:40:00;;;;;;;31.10;29.30;;;12.00;99.20;;;;;;4195767;28;20187;-69
2022/08/23 05:42:01;;;;;;;24.70;23.37;;;12.10;99.50;;;;;;4177929;28;20317;-69
2022/08/23 05:44:02;;;;;;;52.63;50.03;;;12.10;99.40;;;;;;4195154;28;21422;-68
2022/08/23 05:46:09;;;;;;;56.40;53.40;;;12.10;99.10;;;;;;4195629;28;20184;-69
2022/08/23 05:48:11;;;;;;;34.80;32.87;;;12.20;99.00;;;;;;4195720;28;20168;-69
2022/08/23 05:50:12;;;;;;;41.40;39.20;;;12.20;99.20;;;;;;4177733;28;20218;-69
2022/08/23 05:52:13;;;;;;;42.60;40.47;;;12.20;99.20;;;;;;4195609;28;20215;-69
2022/08/23 05:54:14;;;;;;;43.17;40.93;;;12.30;98.60;;;;;;4194874;28;20206;-70
2022/08/23 05:56:20;;;;;;;54.90;52.33;;;12.30;98.30;;;;;;4195424;28;20179;-70
2022/08/23 05:58:20;;;;;;;42.50;40.37;;;12.40;98.20;;;;;;4195509;28;20187;-69
2022/08/23 06:00:21;;;;;;;25.17;23.83;;;12.50;98.10;;;;;;4177580;28;20227;-69
2022/08/23 06:02:22;;;;;;;45.13;42.83;;;12.50;97.80;;;;;;4195411;28;20180;-69
2022/08/23 06:04:22;;;;;;;71.10;67.63;;;12.60;97.90;;;;;;4195305;28;20561;-69
2022/08/23 06:06:23;;;;;;;51.23;48.73;;;12.60;98.00;;;;;;4195385;28;20206;-70
2022/08/23 06:08:24;;;;;;;53.53;50.67;;;12.70;97.90;;;;;;4194659;28;20563;-69
2022/08/23 06:10:25;;;;;;;61.13;58.33;;;12.70;97.70;;;;;;4195180;28;20195;-69
2022/08/23 06:12:25;;;;;;;73.90;70.50;;;12.80;97.40;;;;;;4195534;28;20228;-69
2022/08/23 06:14:27;;;;;;;45.40;43.07;;;12.90;97.10;;;;;;4195149;28;20305;-69
2022/08/23 06:16:30;;;;;;;84.57;80.30;;;13.00;96.80;;;;;;4195489;28;20190;-69
2022/08/23 06:18:30;;;;;;;87.80;83.77;;;13.10;96.50;;;;;;4195413;28;20573;-69
2022/08/23 06:20:31;;;;;;;67.50;64.20;;;13.20;96.20;;;;;;4177475;28;20275;-69
2022/08/23 06:22:32;;;;;;;97.57;92.67;;;13.30;95.90;;;;;;4177472;28;20226;-69
2022/08/23 06:24:32;;;;;;;66.57;63.17;;;13.40;95.70;;;;;;4194650;28;20334;-69
2022/08/23 06:26:39;;;;;;;89.93;85.40;;;13.40;95.40;;;;;;4195337;28;20191;-69
2022/08/23 06:28:41;;;;;;;51.30;48.73;;;13.50;95.40;;;;;;4195233;28;20172;-69
2022/08/23 06:30:42;;;;;;;65.70;62.53;;;13.60;95.40;;;;;;4194758;28;20223;-69
2022/08/23 06:32:43;;;;;;;66.93;63.67;;;13.60;95.00;;;;;;4195222;28;20267;-69
2022/08/23 06:34:43;;;;;;;119.17;113.50;;;13.70;95.40;;;;;;4194617;28;20223;-70
2022/08/23 06:36:46;;;;;;;89.23;84.57;;;13.70;95.90;;;;;;4195371;28;20190;-70
2022/08/23 06:38:49;;;;;;;73.60;70.23;;;13.80;95.00;;;;;;4195409;28;20180;-70
2022/08/23 06:40:50;;;;;;;60.33;57.37;;;13.80;95.00;;;;;;4195000;28;20187;-69
2022/08/23 06:42:52;;;;;;;65.47;62.07;;;13.90;94.30;;;;;;4194580;28;20689;-70
2022/08/23 06:44:53;;;;;;;42.03;39.83;;;14.00;94.10;;;;;;4194112;28;20211;-68
2022/08/23 06:46:57;;;;;;;36.47;34.00;;;14.10;94.20;;;;;;4194494;28;20191;-70
2022/08/23 06:49:04;;;;;;;111.47;106.17;;;14.20;93.00;;;;;;4194448;28;20187;-70
2022/08/23 06:51:12;;;;;;;48.83;46.37;;;14.30;93.70;;;;;;4194247;28;20226;-70
2022/08/23 06:53:13;;;;;;;50.87;48.40;;;14.30;93.00;;;;;;4193728;28;20203;-70
2022/08/23 06:55:13;;;;;;;59.97;57.07;;;14.40;93.00;;;;;;4194395;28;20226;-70
2022/08/23 06:57:14;;;;;;;158.67;144.53;;;14.50;92.40;;;;;;4176344;28;20716;-69
2022/08/23 06:59:16;;;;;;;41.53;39.30;;;14.70;91.80;;;;;;4194202;28;20176;-70
2022/08/23 07:01:27;;;;;;;315.60;166.63;;;14.70;91.90;;;;;;4194164;28;20242;-71
2022/08/23 07:03:28;;;;;;;88.63;83.90;;;14.90;91.90;;;;;;4193360;28;20199;-70
2022/08/23 07:05:30;;;;;;;133.17;120.50;;;14.90;92.10;;;;;;4194291;28;20670;-70
2022/08/23 07:07:31;;;;;;;265.63;140.20;;;15.00;92.60;;;;;;4194125;28;20187;-70
2022/08/23 07:09:32;;;;;;;144.57;123.80;;;15.10;92.30;;;;;;4194108;28;20273;-69
2022/08/23 07:11:33;;;;;;;99.63;55.67;;;15.30;91.50;;;;;;4194152;28;20695;-69
2022/08/23 07:13:34;;;;;;;144.93;81.77;;;15.60;90.20;;;;;;4193411;28;20187;-70
2022/08/23 07:15:34;;;;;;;116.53;110.53;;;15.90;87.30;;;;;;4176550;28;20184;-69
2022/08/23 07:17:35;;;;;;;95.13;89.97;;;16.00;86.20;;;;;;4194061;28;20188;-70
2022/08/23 07:19:36;;;;;;;52.13;48.50;;;16.10;86.80;;;;;;4176244;28;20188;-70
2022/08/23 07:21:37;;;;;;;39.40;37.13;;;16.30;82.70;;;;;;4196979;28;20920;-70
2022/08/23 07:23:39;;;;;;;4.20;3.90;;;16.40;81.80;;;;;;4196356;28;20255;-70
2022/08/23 07:25:39;;;;;;;20.47;19.40;;;16.80;68.00;;;;;;4197113;28;20183;-70
2022/08/23 07:27:40;;;;;;;34.23;32.10;;;17.10;67.50;;;;;;4197040;28;20183;-70
2022/08/23 07:29:41;;;;;;;127.67;42.23;;;17.40;63.50;;;;;;4197045;28;20188;-70
2022/08/23 07:31:45;;;;;;;5.93;4.10;;;17.50;64.90;;;;;;4196997;28;20850;-70
2022/08/23 07:33:47;;;;;;;11.03;10.27;;;17.60;60.40;;;;;;4196309;28;20274;-70
2022/08/23 07:35:48;;;;;;;31.33;26.73;;;17.70;60.20;;;;;;4197028;28;20245;-68
2022/08/23 07:37:49;;;;;;;10.77;10.17;;;17.70;62.50;;;;;;4196849;28;20175;-70
2022/08/23 07:39:49;;;;;;;7.67;7.10;;;18.00;59.30;;;;;;4196850;28;20188;-70
2022/08/23 07:41:51;;;;;;;113.87;62.83;;;18.10;59.40;;;;;;4196879;28;20448;-70
2022/08/23 07:43:53;;;;;;;42.00;38.83;;;18.30;59.80;;;;;;4157939;28;1073852;-70
2022/08/23 07:45:54;;;;;;;76.57;69.07;;;18.40;58.30;;;;;;4197651;28;20182;-70
2022/08/23 07:47:55;;;;;;;22.00;20.70;;;18.50;59.30;;;;;;4197614;28;20647;-69
2022/08/23 07:49:55;;;;;;;96.53;66.03;;;18.60;56.60;;;;;;4197415;28;20276;-69
2022/08/23 07:51:57;;;;;;;136.60;66.40;;;18.80;56.40;;;;;;4197503;28;20946;-69
2022/08/23 07:54:02;;;;;;;68.83;62.60;;;18.90;55.40;;;;;;4196872;28;20191;-69
2022/08/23 07:56:09;;;;;;;14.67;13.77;;;19.00;55.80;;;;;;4179766;28;20180;-69
2022/08/23 07:58:09;;;;;;;12.80;12.10;;;19.10;52.90;;;;;;4179953;28;20206;-69
2022/08/23 08:00:10;;;;;;;17.73;16.07;;;19.30;51.80;;;;;;4197492;28;20652;-69
2022/08/23 08:02:11;;;;;;;23.77;21.90;;;19.50;51.40;;;;;;4197847;28;20190;-68
2022/08/23 08:04:11;;;;;;;16.70;15.80;;;19.60;51.20;;;;;;4198027;28;20200;-69
2022/08/23 08:06:20;;;;;;;83.00;75.40;;;19.90;52.20;;;;;;4200689;28;20187;-70
2022/08/23 08:08:21;;;;;;;13.10;12.27;;;19.90;50.40;;;;;;4183072;28;20207;-69
2022/08/23 08:10:22;;;;;;;80.93;56.63;;;20.10;50.50;;;;;;4197527;28;20211;-69
2022/08/23 08:12:23;;;;;;;23.73;22.17;;;20.10;50.70;;;;;;4179111;28;20275;-69
2022/08/23 08:14:23;;;;;;;27.20;25.50;;;20.30;52.40;;;;;;4178598;28;20196;-69
2022/08/23 08:16:30;;;;;;;9.60;9.00;;;20.40;49.80;;;;;;4196884;28;20180;-69
2022/08/23 08:18:31;;;;;;;12.77;11.83;;;20.60;48.60;;;;;;4197124;28;20198;-70
2022/08/23 08:20:34;;;;;;;103.53;66.77;;;20.70;47.90;;;;;;4162635;28;20181;-69
2022/08/23 08:22:35;;;;;;;29.23;27.37;;;20.80;51.10;;;;;;4179301;28;20188;-69
2022/08/23 08:24:35;;;;;;;17.20;16.30;;;20.90;47.00;;;;;;4178736;28;20235;-70
2022/08/23 08:26:37;;;;;;;34.90;29.87;;;21.10;46.30;;;;;;4178920;28;20657;-69
2022/08/23 08:28:38;;;;;;;37.17;34.40;;;21.20;45.70;;;;;;4178609;28;20214;-70
2022/08/23 08:30:38;;;;;;;15.67;14.77;;;21.30;44.70;;;;;;4162380;28;20716;-70
2022/08/23 08:32:41;;;;;;;27.80;25.70;;;21.30;44.30;;;;;;4179108;28;20180;-69
2022/08/23 08:34:42;;;;;;;25.20;23.50;;;21.30;46.60;;;;;;4161981;28;20211;-70
2022/08/23 08:36:47;;;;;;;59.23;53.43;;;21.70;45.40;;;;;;4162292;28;20684;-70
2022/08/23 08:38:48;;;;;;;9.97;9.27;;;21.80;43.40;;;;;;4145951;28;20189;-70
2022/08/23 08:41:18;;;;;;;43.20;39.40;;;21.80;44.00;;;;;;4180005;28;20231;-70
2022/08/23 08:43:26;;;;;;;74.03;67.73;;;21.90;43.90;;;;;;4152679;28;20247;-69
2022/08/23 08:45:50;;;;;;;21.10;19.70;;;22.00;44.30;;;;;;4179931;28;20656;-70
2022/08/23 08:48:08;;;;;;;16.80;15.87;;;22.20;44.50;;;;;;4179873;28;20184;-70
2022/08/23 08:50:22;;;;;;;453.50;136.43;;;22.40;44.80;;;;;;4179804;28;20664;-69
2022/08/23 08:52:28;;;;;;;14.00;13.10;;;22.40;43.80;;;;;;4162371;28;20319;-70
2022/08/23 08:54:31;;;;;;;20.20;19.03;;;22.30;43.30;;;;;;4161477;28;20200;-70
2022/08/23 08:56:36;;;;;;;73.50;66.33;;;22.40;43.50;;;;;;4162050;28;20590;-70
2022/08/23 08:58:50;;;;;;;93.27;85.70;;;22.60;43.70;;;;;;4162038;28;20177;-70
2022/08/23 09:00:51;;;;;;;71.43;58.10;;;22.60;42.90;;;;;;4162337;28;20180;-70
2022/08/23 09:02:53;;;;;;;23.00;21.23;;;22.70;42.90;;;;;;4160823;28;20197;-67
2022/08/23 09:04:53;;;;;;;317.53;172.87;;;22.70;42.40;;;;;;4194008;28;20660;-67
2022/08/23 09:07:23;;;;;;;36.13;29.37;;;22.80;44.40;;;;;;4178288;28;20188;-66
2022/08/23 09:10:07;;;;;;;102.17;92.17;;;22.60;40.80;;;;;;4195675;28;20179;-67
2022/08/23 09:12:32;;;;;;;29.17;26.67;;;22.80;41.50;;;;;;4188254;28;20188;-68
2022/08/23 09:14:57;;;;;;;40.87;37.83;;;22.70;42.00;;;;;;4194883;28;20252;-67
2022/08/23 09:17:34;;;;;;;29.63;26.73;;;23.10;41.60;;;;;;4193511;28;20176;-68
2022/08/23 09:19:38;;;;;;;45.93;40.60;;;23.50;41.90;;;;;;4183589;28;20179;-70
2022/08/23 09:21:46;;;;;;;245.33;149.57;;;23.50;39.70;;;;;;4195429;28;20183;-68
2022/08/23 09:23:49;;;;;;;35.77;33.13;;;23.60;38.90;;;;;;4194825;28;20195;-69
2022/08/23 09:26:03;;;;;;;43.27;32.67;;;23.60;38.30;;;;;;4186157;28;20176;-69
2022/08/23 09:28:04;;;;;;;19.13;17.53;;;23.50;38.50;;;;;;4187457;28;20850;-69
2022/08/23 09:30:06;;;;;;;159.60;99.23;;;23.50;39.60;;;;;;4183961;28;20735;-69
2022/08/23 09:32:35;;;;;;;37.20;34.00;;;23.50;38.20;;;;;;4179572;28;20189;-69
2022/08/23 09:34:35;;;;;;;26.37;24.77;;;23.30;39.80;;;;;;4194942;28;20571;-69
2022/08/23 09:36:37;;;;;;;81.87;74.77;;;23.40;39.40;;;;;;4195630;28;20191;-70
2022/08/23 09:39:00;;;;;;;17.47;15.93;;;23.40;39.00;;;;;;4192168;28;20187;-70
2022/08/23 09:41:15;;;;;;;19.17;17.80;;;23.40;38.80;;;;;;4178383;28;20183;-69
2022/08/23 09:43:22;;;;;;;50.07;46.10;;;23.60;38.00;;;;;;4189835;28;20298;-70
2022/08/23 09:45:32;;;;;;;144.87;103.37;;;24.00;37.70;;;;;;4195119;28;20242;-69
2022/08/23 09:47:40;;;;;;;23.10;21.30;;;24.00;37.30;;;;;;4171755;28;20176;-69
2022/08/23 09:49:46;;;;;;;1063.10;413.93;;;23.90;37.20;;;;;;4195126;28;20647;-69
2022/08/23 09:51:47;;;;;;;70.10;41.73;;;24.00;36.10;;;;;;4195310;28;20183;-70
2022/08/23 09:54:03;;;;;;;71.97;54.03;;;24.30;39.00;;;;;;4184392;28;20196;-70
2022/08/23 09:56:15;;;;;;;638.77;315.97;;;24.50;37.40;;;;;;4195359;28;20172;-70
2022/08/23 09:58:39;;;;;;;118.77;107.97;;;24.90;35.10;;;;;;4189101;28;20167;-69
2022/08/23 10:00:40;;;;;;;45.20;36.57;;;25.20;34.80;;;;;;4178867;28;20184;-70
2022/08/23 10:02:41;;;;;;;108.47;63.63;;;25.50;35.60;;;;;;4192216;28;20191;-69
2022/08/23 10:05:06;;;;;;;28.57;26.27;;;25.20;34.50;;;;;;4194560;28;20210;-69
2022/08/23 10:07:45;;;;;;;15.07;14.10;;;25.70;34.70;;;;;;4193792;28;20199;-69
2022/08/23 10:09:45;;;;;;;54.43;49.17;;;26.00;32.80;;;;;;4187710;28;20203;-69
2022/08/23 10:11:46;;;;;;;34.93;28.90;;;25.60;33.00;;;;;;4195403;28;20616;-69
2022/08/23 10:13:47;;;;;;;32.97;30.10;;;26.00;32.20;;;;;;4194854;28;20306;-70
2022/08/23 10:16:20;;;;;;;50.50;34.90;;;26.30;31.00;;;;;;4194177;28;20191;-69
2022/08/23 10:18:34;;;;;;;9.60;8.83;;;26.40;31.10;;;;;;4193971;28;20182;-69
2022/08/23 10:20:44;;;;;;;12.00;11.23;;;26.40;30.50;;;;;;4194235;28;20258;-69
2022/08/23 10:22:57;;;;;;;217.33;131.80;;;27.00;30.20;;;;;;4180448;28;20606;-69
2022/08/23 10:25:03;;;;;;;84.27;65.43;;;27.10;29.50;;;;;;4180215;28;20622;-71
2022/08/23 10:29:47;;;;;;;143.37;102.20;;;27.40;29.50;;;;;;4196669;28;20178;-72
2022/08/23 10:32:12;;;;;;;73.03;63.97;;;28.00;29.10;;;;;;4196823;28;20222;-74
2022/08/23 10:34:34;;;;;;;260.30;195.52;;;28.80;29.10;;;;;;4179545;28;20208;-70
2022/08/23 10:37:25;;;;;;;1454.32;409.88;;;29.10;29.30;;;;;;4197273;28;20725;-70